createdAt,value
2023-03-15T00:02:04.040Z,5.17
2023-03-15T00:04:34.112Z,5.23
2023-03-15T00:07:06.692Z,5.27
2023-03-15T00:09:36.101Z,5.29
2023-03-15T00:12:06.067Z,5.06
2023-03-15T00:14:35.686Z,5.21
2023-03-15T00:17:04.329Z,5.05
2023-03-15T00:19:34.320Z,4.95
2023-03-15T00:22:02.941Z,4.66
2023-03-15T00:24:33.595Z,4.75
2023-03-15T00:27:06.070Z,4.72
2023-03-15T00:29:37.075Z,4.66
2023-03-15T00:32:06.191Z,4.73
2023-03-15T00:34:34.861Z,4.55
2023-03-15T00:37:06.887Z,4.71
2023-03-15T00:39:45.316Z,4.78
2023-03-15T00:42:18.965Z,4.82
2023-03-15T00:44:54.357Z,4.75
2023-03-15T00:47:22.909Z,4.45
2023-03-15T00:49:52.136Z,4.83
2023-03-15T00:52:22.163Z,4.82
2023-03-15T00:54:55.193Z,4.75
2023-03-15T00:57:27.878Z,4.73
2023-03-15T00:59:58.549Z,4.61
2023-03-15T01:02:31.642Z,4.45
2023-03-15T01:05:00.869Z,4.41
2023-03-15T01:07:30.274Z,4.32
2023-03-15T01:10:02.139Z,4.38
2023-03-15T01:12:34.970Z,4.21
2023-03-15T01:15:06.057Z,4.13
2023-03-15T01:17:35.436Z,4.20
2023-03-15T01:20:05.609Z,4.23
2023-03-15T01:22:36.810Z,4.27
2023-03-15T01:25:06.572Z,4.08
2023-03-15T01:27:36.040Z,4.18
2023-03-15T01:30:04.648Z,4.10
2023-03-15T01:32:36.102Z,4.24
2023-03-15T01:35:04.742Z,4.21
2023-03-15T01:37:34.540Z,4.19
2023-03-15T01:40:06.929Z,4.16
2023-03-15T01:42:52.665Z,4.10
2023-03-15T01:46:07.544Z,4.12
2023-03-15T01:48:45.048Z,3.90
2023-03-15T01:51:18.405Z,3.98
2023-03-15T01:53:53.291Z,3.88
2023-03-15T01:56:26.066Z,3.75
2023-03-15T01:58:58.763Z,3.81
2023-03-15T02:01:28.212Z,3.80
2023-03-15T02:04:06.625Z,3.74
2023-03-15T02:06:36.576Z,3.86
2023-03-15T02:09:15.568Z,3.85
2023-03-15T02:11:48.081Z,3.84
2023-03-15T02:14:19.362Z,3.81
2023-03-15T02:16:54.173Z,3.81
2023-03-15T02:19:36.919Z,3.71
2023-03-15T02:22:22.220Z,3.77
2023-03-15T02:24:58.010Z,3.67
2023-03-15T02:28:01.605Z,3.73
2023-03-15T02:31:00.787Z,3.57
2023-03-15T02:34:00.805Z,3.47
2023-03-15T02:36:33.552Z,3.43
2023-03-15T02:39:04.593Z,3.37
2023-03-15T02:41:52.324Z,3.28
2023-03-15T02:45:16.677Z,3.31
2023-03-15T02:51:09.417Z,3.31
2023-03-15T03:06:18.321Z,2.91
2023-03-15T03:10:07.209Z,3.19
2023-03-15T05:50:13.188Z,2.82
2023-03-15T06:00:51.802Z,2.24
2023-03-15T06:03:39.646Z,2.35
2023-03-15T06:06:20.132Z,2.32
2023-03-15T06:08:53.185Z,2.29
2023-03-15T06:11:22.175Z,2.28
2023-03-15T06:13:53.287Z,2.18
2023-03-15T06:16:21.992Z,2.19
2023-03-15T06:18:51.702Z,2.18
2023-03-15T06:21:24.139Z,2.17
2023-03-15T06:23:57.265Z,2.18
2023-03-15T06:26:26.983Z,2.29
2023-03-15T06:28:55.668Z,2.21
2023-03-15T06:31:24.131Z,2.08
2023-03-15T06:33:55.269Z,2.25
2023-03-15T06:40:23.568Z,2.54
2023-03-15T06:42:56.886Z,2.73
2023-03-15T06:45:26.856Z,2.81
2023-03-15T06:47:57.957Z,2.64
2023-03-15T06:50:46.014Z,2.86
2023-03-15T06:53:18.981Z,2.82
2023-03-15T06:55:55.038Z,2.84
2023-03-15T06:58:35.502Z,2.95
2023-03-15T07:01:24.815Z,2.91
2023-03-15T07:03:53.254Z,2.91
2023-03-15T07:06:21.392Z,2.87
2023-03-15T07:08:51.963Z,3.16
2023-03-15T07:11:26.033Z,3.05
2023-03-15T07:13:54.432Z,2.99
2023-03-15T07:16:25.215Z,2.98
2023-03-15T07:18:56.851Z,3.25
2023-03-15T07:21:29.396Z,2.80
2023-03-15T07:24:03.452Z,2.81
2023-03-15T07:26:36.224Z,2.85
2023-03-15T07:29:41.664Z,2.98
2023-03-15T07:35:49.968Z,2.92
2023-03-15T07:44:32.367Z,3.02
2023-03-15T07:47:06.548Z,3.14
2023-03-15T07:49:54.423Z,3.20
2023-03-15T07:52:23.566Z,3.37
2023-03-15T07:54:51.611Z,3.72
2023-03-15T07:57:23.156Z,3.66
2023-03-15T07:59:54.347Z,3.72
2023-03-15T08:02:23.832Z,3.99
2023-03-15T08:04:51.935Z,3.82
2023-03-15T08:07:20.129Z,4.13
2023-03-15T08:09:48.987Z,4.15
2023-03-15T08:12:17.051Z,4.59
2023-03-15T08:14:47.579Z,4.21
2023-03-15T08:17:18.519Z,4.06
2023-03-15T08:19:47.556Z,4.44
2023-03-15T08:22:18.443Z,4.45
2023-03-15T08:24:46.670Z,4.68
2023-03-15T08:27:16.922Z,4.93
2023-03-15T08:29:53.318Z,4.66
2023-03-15T08:32:22.182Z,5.45
2023-03-15T08:34:53.164Z,4.95
2023-03-15T08:37:22.441Z,4.44
2023-03-15T08:39:58.862Z,4.68
2023-03-15T08:42:27.768Z,5.10
2023-03-15T08:44:59.544Z,5.10
2023-03-15T08:47:29.206Z,5.30
2023-03-15T08:50:05.858Z,5.61
2023-03-15T08:52:39.445Z,5.24
2023-03-15T08:55:16.516Z,5.42
2023-03-15T08:57:45.434Z,5.64
2023-03-15T09:00:20.972Z,5.46
2023-03-15T09:02:50.379Z,5.60
2023-03-15T09:05:19.635Z,5.89
2023-03-15T09:07:48.424Z,5.61
2023-03-15T09:10:19.294Z,5.66
2023-03-15T09:12:52.134Z,5.59
2023-03-15T09:15:28.056Z,5.60
2023-03-15T09:17:56.909Z,5.89
2023-03-15T09:20:29.094Z,6.00
2023-03-15T09:23:03.113Z,5.46
2023-03-15T09:25:31.533Z,5.90
2023-03-15T09:27:59.667Z,6.14
2023-03-15T09:30:29.813Z,5.89
2023-03-15T09:33:00.835Z,6.39
2023-03-15T09:35:31.108Z,6.64
2023-03-15T09:38:00.987Z,6.61
2023-03-15T09:40:30.837Z,6.87
2023-03-15T09:43:16.411Z,6.77
2023-03-15T09:46:21.311Z,6.54
2023-03-15T09:48:56.919Z,6.51
2023-03-15T09:51:39.645Z,6.95
2023-03-15T09:54:14.189Z,7.11
2023-03-15T09:56:51.983Z,7.17
2023-03-15T09:59:36.071Z,6.77
2023-03-15T10:02:22.310Z,7.07
2023-03-15T10:04:55.878Z,6.87
2023-03-15T10:07:28.508Z,7.14
2023-03-15T10:10:02.114Z,6.95
2023-03-15T10:12:40.791Z,7.42
2023-03-15T10:15:26.178Z,7.45
2023-03-15T10:18:12.699Z,7.60
2023-03-15T10:20:46.308Z,7.97
2023-03-15T10:23:20.900Z,8.09
2023-03-15T10:25:52.609Z,7.55
2023-03-15T10:28:26.043Z,7.79
2023-03-15T10:30:54.418Z,7.84
2023-03-15T10:33:29.450Z,7.87
2023-03-15T10:36:09.691Z,7.49
2023-03-15T10:38:42.243Z,7.53
2023-03-15T10:41:28.765Z,7.49
2023-03-15T10:44:12.960Z,7.41
2023-03-15T10:46:42.331Z,7.38
2023-03-15T10:49:14.017Z,7.89
2023-03-15T10:51:46.595Z,7.50
2023-03-15T10:54:32.084Z,7.47
2023-03-15T10:57:20.118Z,7.74
2023-03-15T11:04:16.696Z,7.38
2023-03-15T11:06:49.551Z,7.41
2023-03-15T11:09:23.951Z,7.10
2023-03-15T11:12:05.170Z,7.11
2023-03-15T11:14:40.375Z,7.25
2023-03-15T11:17:18.268Z,7.72
2023-03-15T11:19:59.489Z,8.02
2023-03-15T11:22:28.037Z,8.29
2023-03-15T11:25:01.525Z,8.41
2023-03-15T11:27:33.438Z,8.44
2023-03-15T11:30:04.441Z,8.52
2023-03-15T11:32:37.079Z,8.24
2023-03-15T11:35:12.789Z,8.63
2023-03-15T11:40:34.492Z,8.73
2023-03-15T11:43:09.192Z,9.04
2023-03-15T11:45:43.838Z,9.11
2023-03-15T11:48:25.924Z,9.25
2023-03-15T11:51:05.220Z,9.17
2023-03-15T11:53:40.297Z,9.22
2023-03-15T11:56:31.090Z,9.37
2023-03-15T11:59:20.192Z,9.46
2023-03-15T12:05:15.861Z,8.93
2023-03-15T12:08:19.826Z,9.10
2023-03-15T12:10:52.803Z,8.98
2023-03-15T12:13:25.595Z,8.71
2023-03-15T12:21:35.996Z,8.68
2023-03-15T12:24:23.554Z,8.64
2023-03-15T12:27:02.549Z,8.46
2023-03-15T12:29:48.045Z,8.36
2023-03-15T12:32:35.693Z,8.65
2023-03-15T12:35:15.586Z,8.41
2023-03-15T12:41:04.040Z,9.18
2023-03-15T12:44:00.536Z,9.06
2023-03-15T12:46:58.787Z,8.85
2023-03-15T12:52:47.610Z,9.66
2023-03-15T12:55:35.648Z,9.49
2023-03-15T13:01:55.511Z,10.03
2023-03-15T13:11:14.827Z,8.54
2023-03-15T13:17:27.535Z,8.20
2023-03-15T13:20:20.130Z,8.37
2023-03-15T13:22:56.439Z,8.47
2023-03-15T13:25:47.484Z,8.57
2023-03-15T13:28:26.485Z,9.33
2023-03-15T13:30:59.981Z,9.33
2023-03-15T13:33:34.299Z,9.23
2023-03-15T13:36:07.054Z,9.42
2023-03-15T13:38:43.748Z,9.37
2023-03-15T13:41:24.795Z,8.51
2023-03-15T13:44:01.474Z,8.87
2023-03-15T13:46:38.532Z,8.93
2023-03-15T13:49:14.398Z,9.30
2023-03-15T13:52:07.573Z,9.40
2023-03-15T13:54:43.197Z,9.63
2023-03-15T14:00:17.201Z,9.55
2023-03-15T14:09:20.552Z,9.17
2023-03-15T14:15:13.589Z,9.51
2023-03-15T14:17:55.580Z,9.31
2023-03-15T14:20:34.531Z,9.50
2023-03-15T14:27:25.960Z,9.85
2023-03-15T14:33:26.104Z,10.02
2023-03-15T14:36:19.567Z,10.06
2023-03-15T14:38:53.790Z,10.32
2023-03-15T14:41:54.241Z,10.69
2023-03-15T14:44:37.266Z,10.18
2023-03-15T14:48:12.684Z,9.96
2023-03-15T14:54:52.522Z,9.92
2023-03-15T14:58:05.442Z,9.95
2023-03-15T15:00:55.547Z,10.02
2023-03-15T16:29:29.590Z,8.41
2023-03-15T16:32:33.376Z,8.41
2023-03-15T17:43:11.670Z,6.08
2023-03-15T17:45:44.583Z,5.94
2023-03-15T17:51:17.810Z,5.60
2023-03-15T17:53:50.859Z,5.64
2023-03-15T17:56:23.295Z,5.58
2023-03-15T17:58:53.043Z,5.68
2023-03-15T18:02:08.136Z,5.61
2023-03-15T22:39:02.571Z,1.18
2023-03-15T23:18:52.824Z,1.25
2023-03-15T23:34:57.259Z,1.02
2023-03-15T23:37:42.875Z,1.17
2023-03-15T23:40:41.664Z,1.14
2023-03-15T23:43:17.300Z,1.13
2023-03-15T23:59:50.904Z,0.46
